Time;durP1;ratioP1;P1;durP2;ratioP2;P2;SDS_P1;SDS_P2;PMS_P1;PMS_P2;Temp;Humidity;BMP_temperature;BMP_pressure;BME280_temperature;BME280_humidity;BME280_pressure;Samples;Min_cycle;Max_cycle;Signal;HPM_P1;HPM_P2
2022/05/22 00:00:11;;;;;;;1999.90;999.90;;;;;;;-145.26;100.00;63821.50;4992594;28;20033;-64
2022/05/22 00:02:37;;;;;;;1999.90;999.90;;;;;;;-145.26;100.00;63821.50;5009617;28;20379;-64
2022/05/22 00:05:03;;;;;;;1999.90;999.90;;;;;;;-145.26;100.00;63821.50;5010291;28;20030;-64
2022/05/22 00:07:28;;;;;;;1999.90;999.90;;;;;;;-145.26;100.00;63821.50;5010511;28;20018;-64
2022/05/22 00:09:54;;;;;;;1999.90;999.90;;;;;;;-145.26;100.00;63821.50;4991784;28;20105;-64
2022/05/22 00:12:19;;;;;;;1999.90;999.90;;;;;;;-145.26;100.00;63821.50;5010560;28;20104;-64
2022/05/22 00:14:44;;;;;;;1999.90;999.90;;;;;;;-145.26;100.00;63821.50;4992743;28;20053;-65
2022/05/22 00:17:10;;;;;;;1999.90;999.90;;;;;;;-145.26;100.00;63821.50;4991915;28;20032;-65
2022/05/22 00:19:37;;;;;;;1999.90;999.90;;;;;;;-145.26;100.00;63821.50;5009953;28;20037;-64
2022/05/22 00:22:03;;;;;;;1999.90;999.90;;;;;;;-145.26;100.00;63821.50;5010301;28;20048;-64
2022/05/22 00:24:30;;;;;;;1999.90;999.90;;;;;;;-145.26;100.00;63821.50;5009316;28;20029;-64
2022/05/22 00:26:57;;;;;;;1999.90;999.90;;;;;;;-145.26;100.00;63821.50;5010263;28;20390;-64
2022/05/22 00:29:23;;;;;;;1999.90;999.90;;;;;;;-145.26;100.00;63821.50;5010012;28;20034;-64
2022/05/22 00:31:48;;;;;;;1999.90;999.90;;;;;;;-145.26;100.00;63821.50;5009314;28;20734;-65
2022/05/22 00:34:14;;;;;;;1999.90;999.90;;;;;;;-145.26;100.00;63821.50;4992720;28;20022;-64
2022/05/22 00:36:40;;;;;;;1999.90;999.90;;;;;;;-145.26;100.00;63821.50;5010154;28;20029;-64
2022/05/22 00:39:05;;;;;;;1999.90;999.90;;;;;;;-145.26;100.00;63821.50;4991306;28;20073;-64
2022/05/22 00:41:32;;;;;;;1999.90;999.90;;;;;;;-145.26;100.00;63821.50;5010149;28;20026;-64
2022/05/22 00:44:00;;;;;;;1999.90;999.90;;;;;;;-145.26;100.00;63821.50;4992136;28;20059;-64
2022/05/22 00:46:27;;;;;;;1999.90;999.90;;;;;;;-145.26;100.00;63821.50;4991329;28;20026;-64
2022/05/22 00:49:04;;;;;;;1999.90;999.90;;;;;;;-145.26;100.00;63821.50;5009637;28;20467;-64
2022/05/22 00:51:43;;;;;;;1999.90;999.90;;;;;;;-145.26;100.00;63821.50;4992491;28;20036;-64
2022/05/22 00:54:20;;;;;;;1999.90;999.90;;;;;;;-145.26;100.00;63821.50;4991192;28;20052;-64
2022/05/22 00:57:04;;;;;;;1999.90;999.90;;;;;;;-145.26;100.00;63821.50;4992209;28;20429;-65
2022/05/22 00:59:38;;;;;;;1999.90;999.90;;;;;;;-145.26;100.00;63821.50;4992280;28;20431;-65
2022/05/22 01:02:04;;;;;;;1999.90;999.90;;;;;;;-145.26;100.00;63821.50;4991697;28;20026;-65
2022/05/22 01:04:33;;;;;;;1999.90;999.90;;;;;;;-145.26;100.00;63821.50;4992282;28;20041;-64
2022/05/22 01:06:59;;;;;;;1999.90;999.90;;;;;;;-145.26;100.00;63821.50;4992274;28;20054;-64
2022/05/22 01:09:25;;;;;;;1999.90;999.90;;;;;;;-145.26;100.00;63821.50;4991613;28;20529;-64
2022/05/22 01:11:54;;;;;;;1999.90;999.90;;;;;;;-145.26;100.00;63821.50;5022906;23;20046;-70
2022/05/22 01:14:22;;;;;;;1999.90;999.90;;;;;;;-145.26;100.00;63821.50;4992420;28;20037;-71
2022/05/22 01:16:49;;;;;;;1999.90;999.90;;;;;;;-145.26;100.00;63821.50;5000452;28;20025;-70
2022/05/22 01:19:18;;;;;;;1999.90;999.90;;;;;;;-145.26;100.00;63821.50;5011394;28;20436;-70
2022/05/22 01:21:53;;;;;;;1999.90;999.90;;;;;;;-145.26;100.00;63821.50;5013986;28;20018;-70
2022/05/22 01:24:18;;;;;;;1999.90;999.90;;;;;;;-145.26;100.00;63821.50;4995425;28;20466;-72
2022/05/22 01:26:44;;;;;;;1999.90;999.90;;;;;;;-145.26;100.00;63821.50;5013925;28;20037;-70
2022/05/22 01:29:09;;;;;;;1999.90;999.90;;;;;;;-145.26;100.00;63821.50;5013367;28;20061;-70
2022/05/22 01:31:34;;;;;;;1999.90;999.90;;;;;;;-145.26;100.00;63821.50;4995531;28;20630;-71
2022/05/22 01:34:00;;;;;;;1999.90;999.90;;;;;;;-145.26;100.00;63821.50;5013515;28;20033;-71
2022/05/22 01:36:25;;;;;;;1999.90;999.90;;;;;;;-145.26;100.00;63821.50;5013528;28;20029;-71
2022/05/22 01:38:50;;;;;;;1999.90;999.90;;;;;;;-145.26;100.00;63821.50;4994713;28;20025;-70
2022/05/22 01:41:16;;;;;;;1999.90;999.90;;;;;;;-145.26;100.00;63821.50;4995885;28;20034;-71
2022/05/22 01:43:41;;;;;;;1999.90;999.90;;;;;;;-145.26;100.00;63821.50;5013643;28;20101;-70
2022/05/22 01:46:07;;;;;;;1999.90;999.90;;;;;;;-145.26;100.00;63821.50;5012043;28;20050;-70
2022/05/22 01:48:33;;;;;;;1999.90;999.90;;;;;;;-145.26;100.00;63821.50;4995303;28;20053;-70
2022/05/22 01:50:58;;;;;;;1999.90;999.90;;;;;;;-145.26;100.00;63821.50;4995571;28;20060;-72
2022/05/22 01:53:24;;;;;;;1999.90;999.90;;;;;;;-145.26;100.00;63821.50;5012769;28;20038;-70
2022/05/22 01:55:50;;;;;;;1999.90;999.90;;;;;;;-145.26;100.00;63821.50;5013357;28;20036;-70
2022/05/22 01:58:15;;;;;;;1999.90;999.90;;;;;;;-145.26;100.00;63821.50;5013320;28;20026;-70
2022/05/22 02:00:41;;;;;;;1999.90;999.90;;;;;;;-145.26;100.00;63821.50;4995555;28;20118;-70
2022/05/22 02:03:07;;;;;;;1999.90;999.90;;;;;;;-145.26;100.00;63821.50;4994955;28;20036;-70
2022/05/22 02:05:34;;;;;;;1999.90;999.90;;;;;;;-145.26;100.00;63821.50;4995784;28;20140;-71
2022/05/22 02:10:44;;;;;;;1999.90;999.90;;;;;;;-145.26;100.00;63821.50;5013154;28;20077;-71
2022/05/22 02:13:10;;;;;;;1999.90;999.90;;;;;;;-145.26;100.00;63821.50;5012879;28;20475;-70
2022/05/22 02:15:35;;;;;;;1999.90;999.90;;;;;;;-145.26;100.00;63821.50;5013102;28;20088;-70
2022/05/22 02:18:00;;;;;;;1999.90;999.90;;;;;;;-145.26;100.00;63821.50;4991038;28;20112;-70
2022/05/22 02:20:26;;;;;;;1999.90;999.90;;;;;;;-145.26;100.00;63821.50;4993235;28;20422;-70
2022/05/22 02:22:54;;;;;;;1999.90;999.90;;;;;;;-145.26;100.00;63821.50;4993001;28;20446;-70
2022/05/22 02:25:27;;;;;;;1999.90;999.90;;;;;;;-145.26;100.00;63821.50;5012321;28;20041;-71
2022/05/22 02:27:53;;;;;;;1999.90;999.90;;;;;;;-145.26;100.00;63821.50;4994782;28;20478;-70
2022/05/22 02:30:23;;;;;;;1999.90;999.90;;;;;;;-145.26;100.00;63821.50;5012473;28;20113;-70
2022/05/22 02:32:48;;;;;;;1999.90;999.90;;;;;;;-145.26;100.00;63821.50;4993902;28;20030;-70
2022/05/22 02:35:15;;;;;;;1999.90;999.90;;;;;;;-145.26;100.00;63821.50;5012843;28;20030;-70
2022/05/22 02:37:43;;;;;;;1999.90;999.90;;;;;;;-145.26;100.00;63821.50;4994998;28;20429;-70
2022/05/22 02:40:09;;;;;;;1999.90;999.90;;;;;;;-145.26;100.00;63821.50;4993224;28;20030;-69
2022/05/22 02:42:42;;;;;;;1999.90;999.90;;;;;;;-145.26;100.00;63821.50;4994763;28;20041;-71
2022/05/22 02:45:09;;;;;;;1999.90;999.90;;;;;;;-145.26;100.00;63821.50;5012360;28;20049;-71
2022/05/22 02:47:35;;;;;;;1999.90;999.90;;;;;;;-145.26;100.00;63821.50;4990673;28;20029;-70
2022/05/22 02:50:00;;;;;;;1999.90;999.90;;;;;;;-145.26;100.00;63821.50;4973589;28;20030;-70
2022/05/22 02:52:26;;;;;;;1999.90;999.90;;;;;;;-145.26;100.00;63821.50;4992213;28;20230;-70
2022/05/22 02:54:51;;;;;;;1999.90;999.90;;;;;;;-145.26;100.00;63821.50;4990943;28;20030;-70
2022/05/22 02:57:21;;;;;;;1999.90;999.90;;;;;;;-145.26;100.00;63821.50;5009526;28;20534;-70
2022/05/22 02:59:47;;;;;;;1999.90;999.90;;;;;;;-145.26;100.00;63821.50;4994335;28;20822;-70
2022/05/22 03:02:13;;;;;;;1999.90;999.90;;;;;;;-145.26;100.00;63821.50;4984936;28;20027;-71
2022/05/22 03:04:38;;;;;;;1999.90;999.90;;;;;;;-145.26;100.00;63821.50;4992415;28;20029;-70
2022/05/22 03:07:04;;;;;;;1999.90;999.90;;;;;;;-145.26;100.00;63821.50;4992700;28;20514;-70
2022/05/22 03:09:30;;;;;;;1999.90;999.90;;;;;;;-145.26;100.00;63821.50;4992083;28;20025;-70
2022/05/22 03:11:57;;;;;;;1999.90;999.90;;;;;;;-145.26;100.00;63821.50;5000521;28;20032;-70
2022/05/22 03:14:22;;;;;;;1999.90;999.90;;;;;;;-145.26;100.00;63821.50;4994258;28;20053;-70
2022/05/22 03:16:48;;;;;;;1999.90;999.90;;;;;;;-145.26;100.00;63821.50;4993065;28;20115;-70
2022/05/22 03:19:14;;;;;;;1999.90;999.90;;;;;;;-145.26;100.00;63821.50;4993959;28;20397;-70
2022/05/22 03:21:44;;;;;;;1999.90;999.90;;;;;;;-145.26;100.00;63821.50;4994106;28;20018;-70
2022/05/22 03:24:09;;;;;;;1999.90;999.90;;;;;;;-145.26;100.00;63821.50;5011625;28;20026;-70
2022/05/22 03:26:35;;;;;;;1999.90;999.90;;;;;;;-145.26;100.00;63821.50;5010819;28;20029;-70
2022/05/22 03:29:00;;;;;;;1999.90;999.90;;;;;;;-145.26;100.00;63821.50;5011140;28;20056;-70
2022/05/22 03:31:26;;;;;;;1999.90;999.90;;;;;;;-145.26;100.00;63821.50;5010160;28;20976;-70
2022/05/22 03:33:52;;;;;;;1999.90;999.90;;;;;;;-145.26;100.00;63821.50;4993864;28;20060;-70
2022/05/22 03:36:17;;;;;;;1999.90;999.90;;;;;;;-145.26;100.00;63821.50;4993795;28;20128;-70
2022/05/22 03:38:42;;;;;;;1999.90;999.90;;;;;;;-145.26;100.00;63821.50;5010210;28;20030;-70
2022/05/22 03:41:08;;;;;;;1999.90;999.90;;;;;;;-145.26;100.00;63821.50;5010572;28;20030;-74
2022/05/22 03:43:33;;;;;;;1999.90;999.90;;;;;;;-145.26;100.00;63821.50;5011214;28;20546;-70
2022/05/22 03:45:59;;;;;;;1999.90;999.90;;;;;;;-145.26;100.00;63821.50;4993370;28;20088;-70
2022/05/22 03:48:24;;;;;;;1999.90;999.90;;;;;;;-145.26;100.00;63821.50;4992599;28;20355;-70
2022/05/22 03:50:49;;;;;;;1999.90;999.90;;;;;;;-145.26;100.00;63821.50;4993355;28;20108;-71
2022/05/22 03:53:15;;;;;;;1999.90;999.90;;;;;;;-145.26;100.00;63821.50;5010338;28;20030;-70
2022/05/22 03:55:42;;;;;;;1999.90;999.90;;;;;;;-145.26;100.00;63821.50;5010697;28;20112;-70
2022/05/22 03:58:08;;;;;;;1999.90;999.90;;;;;;;-145.26;100.00;63821.50;4992979;28;20084;-70
2022/05/22 04:00:34;;;;;;;1999.90;999.90;;;;;;;-145.26;100.00;63821.50;4993311;28;20391;-70
2022/05/22 04:02:59;;;;;;;1999.90;999.90;;;;;;;-145.26;100.00;63821.50;4991551;28;20034;-71
2022/05/22 04:05:25;;;;;;;1999.90;999.90;;;;;;;-145.26;100.00;63821.50;4993379;28;20113;-71
2022/05/22 04:07:50;;;;;;;1999.90;999.90;;;;;;;-145.26;100.00;63821.50;5010982;28;20032;-70
2022/05/22 04:10:17;;;;;;;1999.90;999.90;;;;;;;-145.26;100.00;63821.50;5010292;28;20041;-70
2022/05/22 04:12:43;;;;;;;1999.90;999.90;;;;;;;-145.26;100.00;63821.50;4993029;28;20490;-71
2022/05/22 04:15:12;;;;;;;1999.90;999.90;;;;;;;-145.26;100.00;63821.50;4993025;28;20026;-70
2022/05/22 04:17:37;;;;;;;1999.90;999.90;;;;;;;-145.26;100.00;63821.50;4992178;28;20034;-70
2022/05/22 04:20:03;;;;;;;1999.90;999.90;;;;;;;-145.26;100.00;63821.50;4991808;28;20068;-71
2022/05/22 04:22:29;;;;;;;1999.90;999.90;;;;;;;-145.26;100.00;63821.50;4992920;28;20030;-70
2022/05/22 04:25:12;;;;;;;1999.90;999.90;;;;;;;-145.26;100.00;63821.50;4992923;28;20022;-70
2022/05/22 04:27:39;;;;;;;1999.90;999.90;;;;;;;-145.26;100.00;63821.50;4982540;28;20061;-70
2022/05/22 04:30:06;;;;;;;1999.90;999.90;;;;;;;-145.26;100.00;63821.50;4990547;28;20025;-70
2022/05/22 04:32:31;;;;;;;1999.90;999.90;;;;;;;-145.26;100.00;63821.50;5003251;28;20037;-70
2022/05/22 04:34:56;;;;;;;1999.90;999.90;;;;;;;-145.26;100.00;63821.50;5010175;28;20899;-71
2022/05/22 04:37:22;;;;;;;1999.90;999.90;;;;;;;-145.26;100.00;63821.50;4992677;28;20025;-70
2022/05/22 04:39:47;;;;;;;1999.90;999.90;;;;;;;-145.26;100.00;63821.50;4991977;28;20032;-71
2022/05/22 04:42:12;;;;;;;1999.90;999.90;;;;;;;-145.26;100.00;63821.50;5009348;28;20034;-71
2022/05/22 04:44:38;;;;;;;1999.90;999.90;;;;;;;-145.26;100.00;63821.50;5010086;28;20161;-70
2022/05/22 04:47:03;;;;;;;1999.90;999.90;;;;;;;-145.26;100.00;63821.50;5008657;28;20475;-71
2022/05/22 04:49:29;;;;;;;1999.90;999.90;;;;;;;-145.26;100.00;63821.50;4991939;28;20036;-71
2022/05/22 04:51:58;;;;;;;1999.90;999.90;;;;;;;-145.26;100.00;63821.50;5010097;28;20026;-71
2022/05/22 04:54:24;;;;;;;1999.90;999.90;;;;;;;-145.26;100.00;63821.50;5010204;28;20094;-70
2022/05/22 04:56:49;;;;;;;1999.90;999.90;;;;;;;-145.26;100.00;63821.50;4991582;28;20046;-70
2022/05/22 04:59:14;;;;;;;1999.90;999.90;;;;;;;-145.26;100.00;63821.50;4992181;28;20018;-71
2022/05/22 05:01:40;;;;;;;1999.90;999.90;;;;;;;-145.26;100.00;63821.50;5009059;28;20029;-70
2022/05/22 05:04:06;;;;;;;1999.90;999.90;;;;;;;-145.26;100.00;63821.50;4992476;28;20050;-71
2022/05/22 05:06:31;;;;;;;1999.90;999.90;;;;;;;-145.26;100.00;63821.50;4992407;28;20061;-71
2022/05/22 05:08:57;;;;;;;1999.90;999.90;;;;;;;-145.26;100.00;63821.50;5009529;28;20061;-70
2022/05/22 05:11:22;;;;;;;1999.90;999.90;;;;;;;-145.26;100.00;63821.50;5009988;28;20117;-71
2022/05/22 05:13:47;;;;;;;1999.90;999.90;;;;;;;-145.26;100.00;63821.50;4992256;28;20081;-71
2022/05/22 05:16:13;;;;;;;1999.90;999.90;;;;;;;-145.26;100.00;63821.50;5009320;28;20467;-71
2022/05/22 05:18:40;;;;;;;1999.90;999.90;;;;;;;-145.26;100.00;63821.50;4991900;28;20033;-71
2022/05/22 05:21:08;;;;;;;1999.90;999.90;;;;;;;-145.26;100.00;63821.50;5010105;28;20245;-71
2022/05/22 05:23:34;;;;;;;1999.90;999.90;;;;;;;-145.26;100.00;63821.50;5009947;28;20030;-70
2022/05/22 05:26:00;;;;;;;1999.90;999.90;;;;;;;-145.26;100.00;63821.50;5009350;28;20463;-71
2022/05/22 05:28:26;;;;;;;1999.90;999.90;;;;;;;-145.26;100.00;63821.50;5009573;28;20573;-71
2022/05/22 05:30:51;;;;;;;1999.90;999.90;;;;;;;-145.26;100.00;63821.50;5008819;28;20029;-71
2022/05/22 05:33:17;;;;;;;1999.90;999.90;;;;;;;-145.26;100.00;63821.50;5009878;28;20569;-71
2022/05/22 05:35:43;;;;;;;1999.90;999.90;;;;;;;-145.26;100.00;63821.50;4992163;28;20109;-71
2022/05/22 05:38:09;;;;;;;1999.90;999.90;;;;;;;-145.26;100.00;63821.50;5008641;28;20426;-70
2022/05/22 05:40:35;;;;;;;1999.90;999.90;;;;;;;-145.26;100.00;63821.50;4992041;28;20033;-71
2022/05/22 05:43:01;;;;;;;1999.90;999.90;;;;;;;-145.26;100.00;63821.50;5008925;28;20030;-71
2022/05/22 05:45:27;;;;;;;1999.90;999.90;;;;;;;-145.26;100.00;63821.50;5009837;28;20037;-71
2022/05/22 05:47:52;;;;;;;1999.90;999.90;;;;;;;-145.26;100.00;63821.50;5009420;28;20084;-71
2022/05/22 05:50:21;;;;;;;1999.90;999.90;;;;;;;-145.26;100.00;63821.50;4991860;28;20026;-71
2022/05/22 05:52:49;;;;;;;1999.90;999.90;;;;;;;-145.26;100.00;63821.50;5009501;28;20083;-71
2022/05/22 05:55:15;;;;;;;1999.90;999.90;;;;;;;-145.26;100.00;63821.50;4991982;28;20026;-71
2022/05/22 05:57:40;;;;;;;1999.90;999.90;;;;;;;-145.26;100.00;63821.50;4991838;28;20026;-71
2022/05/22 06:00:08;;;;;;;1999.90;999.90;;;;;;;-145.26;100.00;63821.50;4990877;28;20474;-71
2022/05/22 06:02:34;;;;;;;1999.90;999.90;;;;;;;-145.26;100.00;63821.50;4991336;28;20030;-70
2022/05/22 06:04:59;;;;;;;1999.90;999.90;;;;;;;-145.26;100.00;63821.50;4995165;28;20056;-71
2022/05/22 06:07:25;;;;;;;1999.90;999.90;;;;;;;-145.26;100.00;63821.50;5013170;28;20080;-71
2022/05/22 06:09:50;;;;;;;1999.90;999.90;;;;;;;-145.26;100.00;63821.50;5012678;28;20471;-72
2022/05/22 06:12:15;;;;;;;1999.90;999.90;;;;;;;-145.26;100.00;63821.50;5009991;28;21701;-72
2022/05/22 06:14:41;;;;;;;1999.90;999.90;;;;;;;-145.26;100.00;63821.50;5011465;28;20492;-73
2022/05/22 06:17:07;;;;;;;1999.90;999.90;;;;;;;-145.26;100.00;63821.50;5012140;28;20036;-73
2022/05/22 06:22:18;;;;;;;1999.90;999.90;;;;;;;-145.26;100.00;63821.50;4993549;28;20090;-71
2022/05/22 06:24:44;;;;;;;1999.90;999.90;;;;;;;-145.26;100.00;63821.50;5003152;28;20034;-73
2022/05/22 06:27:09;;;;;;;1999.90;999.90;;;;;;;-145.26;100.00;63821.50;5008552;28;20104;-70
2022/05/22 06:29:34;;;;;;;1999.90;999.90;;;;;;;-145.26;100.00;63821.50;5009007;28;20101;-68
2022/05/22 06:32:00;;;;;;;1999.90;999.90;;;;;;;-145.26;100.00;63821.50;5012470;28;20052;-67
2022/05/22 06:34:26;;;;;;;1999.90;999.90;;;;;;;-145.26;100.00;63821.50;5009876;28;20111;-68
2022/05/22 06:36:52;;;;;;;1999.90;999.90;;;;;;;-145.26;100.00;63821.50;5004199;28;20084;-69
2022/05/22 06:42:02;;;;;;;1999.90;999.90;;;;;;;-145.26;100.00;63821.50;5010685;28;20049;-68
2022/05/22 06:44:28;;;;;;;1999.90;999.90;;;;;;;-145.26;100.00;63821.50;5004339;28;20100;-68
2022/05/22 06:46:53;;;;;;;1999.90;999.90;;;;;;;-145.26;100.00;63821.50;5009450;28;20049;-69
2022/05/22 06:49:20;;;;;;;1999.90;999.90;;;;;;;-145.26;100.00;63821.50;5016200;28;20022;-68
2022/05/22 06:51:46;;;;;;;1999.90;999.90;;;;;;;-145.26;100.00;63821.50;5021199;28;20063;-68
2022/05/22 06:54:12;;;;;;;1999.90;999.90;;;;;;;-145.26;100.00;63821.50;5013420;28;20049;-71
2022/05/22 06:56:37;;;;;;;1999.90;999.90;;;;;;;-145.26;100.00;63821.50;5015676;28;20043;-72
2022/05/22 06:59:03;;;;;;;1999.90;999.90;;;;;;;-145.26;100.00;63821.50;5013248;28;20085;-77
2022/05/22 07:01:29;;;;;;;1999.90;999.90;;;;;;;-145.26;100.00;63821.50;5010162;28;20076;-70
2022/05/22 07:03:54;;;;;;;1999.90;999.90;;;;;;;-145.26;100.00;63821.50;5012964;28;20079;-71
2022/05/22 07:06:19;;;;;;;1999.90;999.90;;;;;;;-145.26;100.00;63821.50;5026284;28;20034;-70
2022/05/22 07:08:45;;;;;;;1999.90;999.90;;;;;;;-145.26;100.00;63821.50;5010201;28;20057;-76
2022/05/22 07:13:54;;;;;;;1999.90;999.90;;;;;;;-145.26;100.00;63821.50;5013389;28;20124;-72
2022/05/22 07:16:19;;;;;;;1999.90;999.90;;;;;;;-145.26;100.00;63821.50;5021830;28;20112;-70
2022/05/22 07:18:45;;;;;;;1999.90;999.90;;;;;;;-145.26;100.00;63821.50;5031574;28;20017;-71
2022/05/22 07:21:10;;;;;;;1999.90;999.90;;;;;;;-145.26;100.00;63821.50;5011709;28;20022;-71
2022/05/22 07:23:36;;;;;;;1999.90;999.90;;;;;;;-145.26;100.00;63821.50;5011069;28;20034;-71
2022/05/22 07:26:01;;;;;;;1999.90;999.90;;;;;;;-145.26;100.00;63821.50;5008087;28;20034;-71
2022/05/22 07:28:26;;;;;;;1999.90;999.90;;;;;;;-145.26;100.00;63821.50;5008144;28;20080;-72
2022/05/22 07:30:52;;;;;;;1999.90;999.90;;;;;;;-145.26;100.00;63821.50;5009259;28;20038;-70
2022/05/22 07:33:17;;;;;;;1999.90;999.90;;;;;;;-145.26;100.00;63821.50;5011933;28;20493;-71
2022/05/22 07:36:39;;;;;;;1999.90;999.90;;;;;;;23.33;34.35;95374.22;5109679;27;20362;-71
2022/05/22 07:39:05;;;;;;;1999.90;999.90;;;;;;;23.54;34.18;95380.91;5108300;28;20036;-72
2022/05/22 07:41:31;;;;;;;1999.90;999.90;;;;;;;23.53;34.25;95376.66;5089835;28;20103;-69
2022/05/22 07:43:57;;;;;;;1999.90;999.90;;;;;;;23.49;34.81;95384.81;5100162;28;20111;-72
2022/05/22 07:46:22;;;;;;;1999.90;999.90;;;;;;;23.10;33.29;95362.88;5090831;28;20802;-68
2022/05/22 07:48:48;;;;;;;1999.90;999.90;;;;;;;23.15;33.97;95372.59;5087274;28;20071;-67
2022/05/22 07:51:14;;;;;;;1999.90;999.90;;;;;;;23.34;33.47;95364.94;5102401;28;20034;-73
2022/05/22 07:53:40;;;;;;;1999.90;999.90;;;;;;;23.51;33.40;95358.03;5086218;28;20024;-70
2022/05/22 07:56:06;;;;;;;1999.90;999.90;;;;;;;23.61;33.13;95362.72;5096444;28;20028;-69
2022/05/22 07:58:32;;;;;;;1999.90;999.90;;;;;;;22.20;34.93;95358.66;5086699;28;20040;-69
2022/05/22 08:00:58;;;;;;;1999.90;999.90;;;;;;;22.45;34.83;95369.72;5088913;28;20031;-74
2022/05/22 08:03:24;;;;;;;1999.90;999.90;;;;;;;22.04;35.04;95364.28;5102237;28;20055;-70
2022/05/22 08:05:51;;;;;;;1999.90;999.90;;;;;;;22.88;34.18;95363.84;5086086;28;20024;-70
2022/05/22 08:08:16;;;;;;;1999.90;999.90;;;;;;;23.19;32.93;95357.13;5085559;28;20461;-70
2022/05/22 08:10:42;;;;;;;1999.90;999.90;;;;;;;23.35;33.70;95352.94;5087133;28;20048;-69
2022/05/22 08:13:10;;;;;;;1999.90;999.90;;;;;;;23.67;33.53;95355.03;5092815;28;20038;-69
2022/05/22 08:15:37;;;;;;;1999.90;999.90;;;;;;;23.88;31.98;95361.69;5103024;28;20027;-73
2022/05/22 08:18:04;;;;;;;1999.90;999.90;;;;;;;23.95;31.64;95342.66;5093014;28;20040;-73
2022/05/22 08:20:33;;;;;;;1999.90;999.90;;;;;;;23.93;31.70;95350.44;5086699;28;20020;-76
2022/05/22 08:23:01;;;;;;;1999.90;999.90;;;;;;;23.56;31.92;95321.59;5086799;28;20083;-71
2022/05/22 08:25:28;;;;;;;1999.90;999.90;;;;;;;24.16;32.17;95336.50;5089874;28;20035;-74
2022/05/22 08:27:55;;;;;;;1999.90;999.90;;;;;;;24.41;31.14;95340.03;5099497;28;20025;-71
2022/05/22 08:30:23;;;;;;;1999.90;999.90;;;;;;;24.54;31.57;95318.69;5089638;28;20035;-70
2022/05/22 08:32:50;;;;;;;1999.90;999.90;;;;;;;24.79;31.36;95333.03;5095629;28;20024;-70
2022/05/22 08:35:22;;;;;;;1999.90;999.90;;;;;;;24.99;31.47;95332.63;5084735;28;20119;-72
2022/05/22 08:37:47;;;;;;;1999.90;999.90;;;;;;;25.17;30.87;95319.00;5101500;28;20031;-72
2022/05/22 08:40:15;;;;;;;1999.90;999.90;;;;;;;25.25;30.39;95324.03;5106184;28;20024;-72
2022/05/22 08:42:46;;;;;;;1999.90;999.90;;;;;;;23.78;30.60;95320.53;5095288;28;20032;-72
2022/05/22 08:45:33;;;;;;;1999.90;999.90;;;;;;;23.65;31.51;95326.69;5086026;28;20473;-71
2022/05/22 08:48:06;;;;;;;1999.90;999.90;;;;;;;24.09;31.31;95327.19;5070584;28;20473;-72
2022/05/22 08:50:33;;;;;;;1999.90;999.90;;;;;;;23.11;31.72;95326.44;5072875;28;20028;-72
2022/05/22 08:53:25;;;;;;;1999.90;999.90;;;;;;;23.23;32.10;95317.97;5071511;28;20357;-74
2022/05/22 08:58:58;;;;;;;1999.90;999.90;;;;;;;24.09;30.81;95308.16;5071799;28;20051;-71
2022/05/22 09:02:02;;;;;;;1999.90;999.90;;;;;;;23.74;30.78;95316.25;5071247;28;20021;-72
2022/05/22 09:04:33;;;;;;;1999.90;999.90;;;;;;;24.01;30.86;95319.41;5070782;28;20101;-71
2022/05/22 09:07:28;;;;;;;1999.90;999.90;;;;;;;24.18;30.93;95324.09;5072420;28;20017;-71
2022/05/22 09:10:01;;;;;;;1999.90;999.90;;;;;;;22.88;31.61;95328.59;5057215;28;20036;-74
2022/05/22 09:13:04;;;;;;;1999.90;999.90;;;;;;;22.09;33.12;95309.00;5078588;28;20102;-71
2022/05/22 09:15:49;;;;;;;1999.90;999.90;;;;;;;22.62;32.85;95316.03;5076221;28;20111;-71
2022/05/22 09:18:30;;;;;;;1999.90;999.90;;;;;;;22.37;33.69;95321.25;5081123;28;20431;-71
2022/05/22 09:21:01;;;;;;;1999.90;999.90;;;;;;;23.48;31.59;95293.63;5091697;28;20031;-72
2022/05/22 09:23:41;;;;;;;1999.90;999.90;;;;;;;24.19;31.26;95303.13;5092150;28;20058;-71
2022/05/22 09:26:14;;;;;;;1999.90;999.90;;;;;;;24.55;30.28;95307.41;5088374;28;20042;-71
2022/05/22 09:28:40;;;;;;;1999.90;999.90;;;;;;;24.41;30.26;95310.13;5092057;28;20058;-71
2022/05/22 09:31:31;;;;;;;1999.90;999.90;;;;;;;24.53;29.87;95301.59;5071923;28;20035;-71
2022/05/22 09:34:28;;;;;;;1999.90;999.90;;;;;;;23.86;30.48;95303.09;5071775;28;20024;-73
2022/05/22 09:37:14;;;;;;;1999.90;999.90;;;;;;;24.18;30.06;95301.56;5071194;28;20064;-72
2022/05/22 09:39:57;;;;;;;1999.90;999.90;;;;;;;23.17;30.66;95305.91;5071148;28;20056;-73
2022/05/22 09:42:41;;;;;;;1999.90;999.90;;;;;;;23.83;29.50;95297.63;5087569;28;20826;-74
2022/05/22 09:45:17;;;;;;;1999.90;999.90;;;;;;;24.50;28.05;95296.16;5088072;28;20032;-71
2022/05/22 09:48:00;;;;;;;1999.90;999.90;;;;;;;23.21;29.73;95295.09;5086225;28;20033;-72
2022/05/22 09:50:34;;;;;;;1999.90;999.90;;;;;;;23.67;29.33;95270.84;5070217;28;20059;-71
2022/05/22 09:53:12;;;;;;;1999.90;999.90;;;;;;;23.86;29.72;95281.34;5071327;28;20028;-72
2022/05/22 09:55:45;;;;;;;1999.90;999.90;;;;;;;24.51;28.91;95243.31;5069938;28;20035;-71
2022/05/22 09:58:33;;;;;;;1999.90;999.90;;;;;;;24.03;28.35;95249.94;5069573;28;20032;-71
2022/05/22 10:01:11;;;;;;;1999.90;999.90;;;;;;;25.08;28.36;95262.25;5084831;28;20047;-73
2022/05/22 10:03:56;;;;;;;1999.90;999.90;;;;;;;25.37;28.55;95246.56;5070596;28;20047;-72
2022/05/22 10:06:59;;;;;;;1999.90;999.90;;;;;;;24.48;28.45;95252.28;5070867;28;20028;-73
2022/05/22 10:09:49;;;;;;;1999.90;999.90;;;;;;;24.35;28.47;95244.50;5071065;28;20028;-72
2022/05/22 10:12:47;;;;;;;1999.90;999.90;;;;;;;24.86;28.15;95232.34;5081051;28;20067;-72
2022/05/22 10:15:57;;;;;;;1999.90;999.90;;;;;;;25.43;27.67;95242.25;5071260;28;20764;-71
2022/05/22 10:18:46;;;;;;;1999.90;999.90;;;;;;;25.40;27.54;95243.84;5069201;28;20040;-72
2022/05/22 10:21:39;;;;;;;1999.90;999.90;;;;;;;24.77;28.91;95233.94;5071139;28;20024;-73
2022/05/22 10:24:08;;;;;;;1999.90;999.90;;;;;;;23.67;28.08;95245.63;5070725;28;20025;-73
2022/05/22 10:27:02;;;;;;;1999.90;999.90;;;;;;;23.84;27.47;95250.28;5084678;28;20035;-71
2022/05/22 10:29:39;;;;;;;1999.90;999.90;;;;;;;24.02;27.07;95255.75;5088154;28;20107;-71
2022/05/22 10:32:09;;;;;;;1999.90;999.90;;;;;;;25.23;26.15;95244.69;5090977;28;20125;-71
2022/05/22 10:35:07;;;;;;;1999.90;999.90;;;;;;;25.43;25.35;95234.09;5074212;28;20442;-71
2022/05/22 10:38:08;;;;;;;1999.90;999.90;;;;;;;25.29;25.60;95231.47;5070678;28;20029;-71
2022/05/22 10:43:18;;;;;;;1999.90;999.90;;;;;;;25.68;25.64;95215.66;5071182;28;20039;-72
2022/05/22 10:45:46;;;;;;;1999.90;999.90;;;;;;;25.88;26.07;95226.84;5069196;28;20032;-71
2022/05/22 10:48:17;;;;;;;1999.90;999.90;;;;;;;24.89;24.91;95223.41;5068499;28;20043;-71
2022/05/22 10:50:51;;;;;;;1999.90;999.90;;;;;;;23.82;24.17;95226.25;5077855;28;20491;-72
2022/05/22 10:53:46;;;;;;;1999.90;999.90;;;;;;;23.93;24.76;95222.75;5090772;28;20028;-71
2022/05/22 10:56:17;;;;;;;1999.90;999.90;;;;;;;24.47;26.34;95216.16;5056993;28;20040;-67
2022/05/22 10:58:56;;;;;;;1999.90;999.90;;;;;;;24.29;27.22;95221.56;5070149;28;20422;-67
2022/05/22 11:01:27;;;;;;;1999.90;999.90;;;;;;;24.42;24.84;95205.69;5083278;28;20089;-71
2022/05/22 11:04:13;;;;;;;1999.90;999.90;;;;;;;23.98;25.05;95211.50;5081586;28;20040;-75
2022/05/22 11:06:52;;;;;;;1999.90;999.90;;;;;;;25.21;23.94;95187.16;5070316;28;20552;-69